sensor_id;sensor_type;location;lat;lon;timestamp;P1;durP1;ratioP1;P2;durP2;ratioP2
16689;SDS011;8458;52.220;9.884;2022-09-30T00:00:13;2.77;;;2.57;;
16689;SDS011;8458;52.220;9.884;2022-09-30T00:02:42;2.60;;;2.50;;
16689;SDS011;8458;52.220;9.884;2022-09-30T00:05:09;2.27;;;2.17;;
16689;SDS011;8458;52.220;9.884;2022-09-30T00:07:36;2.73;;;2.40;;
16689;SDS011;8458;52.220;9.884;2022-09-30T00:10:02;3.10;;;2.80;;
16689;SDS011;8458;52.220;9.884;2022-09-30T00:12:31;2.60;;;2.40;;
16689;SDS011;8458;52.220;9.884;2022-09-30T00:14:58;3.20;;;3.00;;
16689;SDS011;8458;52.220;9.884;2022-09-30T00:17:24;2.87;;;2.67;;
16689;SDS011;8458;52.220;9.884;2022-09-30T00:19:53;3.10;;;2.80;;
16689;SDS011;8458;52.220;9.884;2022-09-30T00:22:20;2.63;;;2.53;;
16689;SDS011;8458;52.220;9.884;2022-09-30T00:24:46;3.00;;;2.80;;
16689;SDS011;8458;52.220;9.884;2022-09-30T00:27:12;3.00;;;2.70;;
16689;SDS011;8458;52.220;9.884;2022-09-30T00:29:42;3.23;;;2.90;;
16689;SDS011;8458;52.220;9.884;2022-09-30T00:32:08;2.90;;;2.70;;
16689;SDS011;8458;52.220;9.884;2022-09-30T00:34:35;2.83;;;2.63;;
16689;SDS011;8458;52.220;9.884;2022-09-30T00:37:02;2.57;;;2.47;;
16689;SDS011;8458;52.220;9.884;2022-09-30T00:39:29;2.60;;;2.50;;
16689;SDS011;8458;52.220;9.884;2022-09-30T00:41:57;2.40;;;2.30;;
16689;SDS011;8458;52.220;9.884;2022-09-30T00:44:42;2.50;;;2.30;;
16689;SDS011;8458;52.220;9.884;2022-09-30T00:47:18;2.67;;;2.57;;
16689;SDS011;8458;52.220;9.884;2022-09-30T00:49:54;2.97;;;2.77;;
16689;SDS011;8458;52.220;9.884;2022-09-30T00:52:26;2.37;;;2.20;;
16689;SDS011;8458;52.220;9.884;2022-09-30T00:54:54;2.33;;;2.23;;
16689;SDS011;8458;52.220;9.884;2022-09-30T00:57:22;2.50;;;2.30;;
16689;SDS011;8458;52.220;9.884;2022-09-30T00:59:49;2.80;;;2.60;;
16689;SDS011;8458;52.220;9.884;2022-09-30T01:02:17;2.53;;;2.37;;
16689;SDS011;8458;52.220;9.884;2022-09-30T01:04:43;2.37;;;2.27;;
16689;SDS011;8458;52.220;9.884;2022-09-30T01:07:11;2.37;;;2.27;;
16689;SDS011;8458;52.220;9.884;2022-09-30T01:09:40;2.67;;;2.47;;
16689;SDS011;8458;52.220;9.884;2022-09-30T01:12:08;2.40;;;2.20;;
16689;SDS011;8458;52.220;9.884;2022-09-30T01:14:38;2.70;;;2.50;;
16689;SDS011;8458;52.220;9.884;2022-09-30T01:17:07;2.63;;;2.43;;
16689;SDS011;8458;52.220;9.884;2022-09-30T01:22:46;2.53;;;2.43;;
16689;SDS011;8458;52.220;9.884;2022-09-30T01:25:34;2.80;;;2.60;;
16689;SDS011;8458;52.220;9.884;2022-09-30T01:31:36;2.20;;;2.10;;
16689;SDS011;8458;52.220;9.884;2022-09-30T01:34:15;2.90;;;2.70;;
16689;SDS011;8458;52.220;9.884;2022-09-30T01:36:52;2.40;;;2.30;;
16689;SDS011;8458;52.220;9.884;2022-09-30T01:39:32;2.50;;;2.30;;
16689;SDS011;8458;52.220;9.884;2022-09-30T01:42:08;2.43;;;2.23;;
16689;SDS011;8458;52.220;9.884;2022-09-30T01:44:42;2.20;;;2.10;;
16689;SDS011;8458;52.220;9.884;2022-09-30T01:47:18;2.30;;;2.07;;
16689;SDS011;8458;52.220;9.884;2022-09-30T01:49:50;3.13;;;2.40;;
16689;SDS011;8458;52.220;9.884;2022-09-30T01:52:23;2.40;;;2.30;;
16689;SDS011;8458;52.220;9.884;2022-09-30T01:54:54;1.93;;;1.83;;
16689;SDS011;8458;52.220;9.884;2022-09-30T01:57:26;2.37;;;2.17;;
16689;SDS011;8458;52.220;9.884;2022-09-30T01:59:57;2.30;;;2.20;;
16689;SDS011;8458;52.220;9.884;2022-09-30T02:02:29;2.10;;;2.00;;
16689;SDS011;8458;52.220;9.884;2022-09-30T02:05:00;2.50;;;2.30;;
16689;SDS011;8458;52.220;9.884;2022-09-30T02:07:35;2.70;;;2.50;;
16689;SDS011;8458;52.220;9.884;2022-09-30T02:10:04;2.97;;;2.77;;
16689;SDS011;8458;52.220;9.884;2022-09-30T02:12:36;2.40;;;2.30;;
16689;SDS011;8458;52.220;9.884;2022-09-30T02:15:14;2.60;;;2.50;;
16689;SDS011;8458;52.220;9.884;2022-09-30T02:17:48;2.60;;;2.40;;
16689;SDS011;8458;52.220;9.884;2022-09-30T02:20:19;2.57;;;2.47;;
16689;SDS011;8458;52.220;9.884;2022-09-30T02:22:50;2.80;;;2.60;;
16689;SDS011;8458;52.220;9.884;2022-09-30T02:25:23;2.30;;;2.13;;
16689;SDS011;8458;52.220;9.884;2022-09-30T02:27:54;2.50;;;2.30;;
16689;SDS011;8458;52.220;9.884;2022-09-30T02:30:24;2.87;;;2.67;;
16689;SDS011;8458;52.220;9.884;2022-09-30T02:32:54;2.80;;;2.60;;
16689;SDS011;8458;52.220;9.884;2022-09-30T02:35:25;2.80;;;2.60;;
16689;SDS011;8458;52.220;9.884;2022-09-30T02:37:55;2.87;;;2.67;;
16689;SDS011;8458;52.220;9.884;2022-09-30T02:40:26;2.50;;;2.40;;
16689;SDS011;8458;52.220;9.884;2022-09-30T02:42:55;2.67;;;2.47;;
16689;SDS011;8458;52.220;9.884;2022-09-30T02:45:23;2.13;;;2.03;;
16689;SDS011;8458;52.220;9.884;2022-09-30T02:48:03;2.30;;;2.20;;
16689;SDS011;8458;52.220;9.884;2022-09-30T02:50:38;2.37;;;2.27;;
16689;SDS011;8458;52.220;9.884;2022-09-30T02:53:15;2.27;;;2.17;;
16689;SDS011;8458;52.220;9.884;2022-09-30T02:55:53;2.53;;;2.33;;
16689;SDS011;8458;52.220;9.884;2022-09-30T02:58:29;2.87;;;2.53;;
16689;SDS011;8458;52.220;9.884;2022-09-30T03:00:58;2.60;;;2.40;;
16689;SDS011;8458;52.220;9.884;2022-09-30T03:03:27;2.57;;;2.40;;
16689;SDS011;8458;52.220;9.884;2022-09-30T03:05:57;2.33;;;2.23;;
16689;SDS011;8458;52.220;9.884;2022-09-30T03:08:24;2.57;;;2.37;;
16689;SDS011;8458;52.220;9.884;2022-09-30T03:10:51;2.90;;;2.70;;
16689;SDS011;8458;52.220;9.884;2022-09-30T03:13:29;2.90;;;2.70;;
16689;SDS011;8458;52.220;9.884;2022-09-30T03:16:16;2.80;;;2.70;;
16689;SDS011;8458;52.220;9.884;2022-09-30T03:18:56;3.40;;;3.10;;
16689;SDS011;8458;52.220;9.884;2022-09-30T03:21:41;3.47;;;3.23;;
16689;SDS011;8458;52.220;9.884;2022-09-30T03:24:27;3.20;;;3.00;;
16689;SDS011;8458;52.220;9.884;2022-09-30T03:27:04;3.50;;;3.30;;
16689;SDS011;8458;52.220;9.884;2022-09-30T03:29:41;3.50;;;3.30;;
16689;SDS011;8458;52.220;9.884;2022-09-30T03:32:14;3.77;;;3.47;;
16689;SDS011;8458;52.220;9.884;2022-09-30T03:34:57;3.70;;;3.50;;
16689;SDS011;8458;52.220;9.884;2022-09-30T03:37:29;4.00;;;3.47;;
16689;SDS011;8458;52.220;9.884;2022-09-30T03:40:03;4.03;;;3.83;;
16689;SDS011;8458;52.220;9.884;2022-09-30T03:42:36;4.13;;;3.93;;
16689;SDS011;8458;52.220;9.884;2022-09-30T03:45:10;4.03;;;3.83;;
16689;SDS011;8458;52.220;9.884;2022-09-30T03:47:43;3.97;;;3.77;;
16689;SDS011;8458;52.220;9.884;2022-09-30T03:50:14;3.70;;;3.50;;
16689;SDS011;8458;52.220;9.884;2022-09-30T03:52:46;4.57;;;4.37;;
16689;SDS011;8458;52.220;9.884;2022-09-30T03:55:13;4.50;;;4.30;;
16689;SDS011;8458;52.220;9.884;2022-09-30T03:57:41;4.43;;;4.13;;
16689;SDS011;8458;52.220;9.884;2022-09-30T04:00:09;4.40;;;4.13;;
16689;SDS011;8458;52.220;9.884;2022-09-30T04:02:37;4.30;;;4.10;;
16689;SDS011;8458;52.220;9.884;2022-09-30T04:05:04;4.50;;;4.30;;
16689;SDS011;8458;52.220;9.884;2022-09-30T04:07:33;4.33;;;4.03;;
16689;SDS011;8458;52.220;9.884;2022-09-30T04:10:00;4.13;;;3.93;;
16689;SDS011;8458;52.220;9.884;2022-09-30T04:12:26;4.17;;;3.97;;
16689;SDS011;8458;52.220;9.884;2022-09-30T04:14:52;4.27;;;4.07;;
16689;SDS011;8458;52.220;9.884;2022-09-30T04:17:19;4.43;;;4.23;;
16689;SDS011;8458;52.220;9.884;2022-09-30T04:19:45;4.03;;;3.73;;
16689;SDS011;8458;52.220;9.884;2022-09-30T04:22:12;4.47;;;4.03;;
16689;SDS011;8458;52.220;9.884;2022-09-30T04:24:40;4.57;;;4.30;;
16689;SDS011;8458;52.220;9.884;2022-09-30T04:27:07;4.67;;;4.37;;
16689;SDS011;8458;52.220;9.884;2022-09-30T04:29:34;4.57;;;4.27;;
16689;SDS011;8458;52.220;9.884;2022-09-30T04:32:00;5.07;;;4.67;;
16689;SDS011;8458;52.220;9.884;2022-09-30T04:34:27;3.70;;;3.50;;
16689;SDS011;8458;52.220;9.884;2022-09-30T04:36:53;3.80;;;3.60;;
16689;SDS011;8458;52.220;9.884;2022-09-30T04:39:20;4.20;;;4.00;;
16689;SDS011;8458;52.220;9.884;2022-09-30T04:41:47;4.07;;;3.77;;
16689;SDS011;8458;52.220;9.884;2022-09-30T04:44:14;4.40;;;4.20;;
16689;SDS011;8458;52.220;9.884;2022-09-30T04:46:41;4.53;;;4.23;;
16689;SDS011;8458;52.220;9.884;2022-09-30T04:49:07;4.43;;;4.23;;
16689;SDS011;8458;52.220;9.884;2022-09-30T04:51:34;3.87;;;3.67;;
16689;SDS011;8458;52.220;9.884;2022-09-30T04:54:01;4.60;;;4.30;;
16689;SDS011;8458;52.220;9.884;2022-09-30T04:56:27;4.30;;;4.00;;
16689;SDS011;8458;52.220;9.884;2022-09-30T04:58:55;4.20;;;4.00;;
16689;SDS011;8458;52.220;9.884;2022-09-30T05:01:22;4.17;;;3.97;;
16689;SDS011;8458;52.220;9.884;2022-09-30T05:03:48;4.60;;;4.33;;
16689;SDS011;8458;52.220;9.884;2022-09-30T05:06:15;4.47;;;4.27;;
16689;SDS011;8458;52.220;9.884;2022-09-30T05:08:41;4.50;;;4.20;;
16689;SDS011;8458;52.220;9.884;2022-09-30T05:11:10;4.20;;;3.90;;
16689;SDS011;8458;52.220;9.884;2022-09-30T05:13:41;4.20;;;4.00;;
16689;SDS011;8458;52.220;9.884;2022-09-30T05:16:09;4.30;;;4.10;;
16689;SDS011;8458;52.220;9.884;2022-09-30T05:18:37;4.77;;;4.47;;
16689;SDS011;8458;52.220;9.884;2022-09-30T05:21:06;4.60;;;4.30;;
16689;SDS011;8458;52.220;9.884;2022-09-30T05:23:32;5.70;;;5.40;;
16689;SDS011;8458;52.220;9.884;2022-09-30T05:25:59;6.20;;;5.80;;
16689;SDS011;8458;52.220;9.884;2022-09-30T05:28:27;5.93;;;5.53;;
16689;SDS011;8458;52.220;9.884;2022-09-30T05:30:55;4.17;;;3.97;;
16689;SDS011;8458;52.220;9.884;2022-09-30T05:33:24;3.70;;;3.57;;
16689;SDS011;8458;52.220;9.884;2022-09-30T05:35:51;4.47;;;4.17;;
16689;SDS011;8458;52.220;9.884;2022-09-30T05:38:18;5.03;;;4.73;;
16689;SDS011;8458;52.220;9.884;2022-09-30T05:40:44;4.80;;;4.60;;
16689;SDS011;8458;52.220;9.884;2022-09-30T05:43:11;5.17;;;4.87;;
16689;SDS011;8458;52.220;9.884;2022-09-30T05:45:37;5.50;;;5.10;;
16689;SDS011;8458;52.220;9.884;2022-09-30T05:48:04;5.10;;;4.87;;
16689;SDS011;8458;52.220;9.884;2022-09-30T05:50:33;5.27;;;4.97;;
16689;SDS011;8458;52.220;9.884;2022-09-30T05:52:59;5.63;;;5.33;;
16689;SDS011;8458;52.220;9.884;2022-09-30T05:55:26;5.67;;;5.27;;
16689;SDS011;8458;52.220;9.884;2022-09-30T05:57:52;5.97;;;5.57;;
16689;SDS011;8458;52.220;9.884;2022-09-30T06:00:19;5.90;;;5.50;;
16689;SDS011;8458;52.220;9.884;2022-09-30T06:02:49;5.90;;;5.50;;
16689;SDS011;8458;52.220;9.884;2022-09-30T06:05:16;5.33;;;5.00;;
16689;SDS011;8458;52.220;9.884;2022-09-30T06:07:44;4.70;;;4.40;;
16689;SDS011;8458;52.220;9.884;2022-09-30T06:10:10;4.50;;;4.30;;
16689;SDS011;8458;52.220;9.884;2022-09-30T06:12:37;4.43;;;4.20;;
16689;SDS011;8458;52.220;9.884;2022-09-30T06:15:04;5.33;;;4.93;;
16689;SDS011;8458;52.220;9.884;2022-09-30T06:17:31;5.53;;;5.23;;
16689;SDS011;8458;52.220;9.884;2022-09-30T06:19:57;4.90;;;4.60;;
16689;SDS011;8458;52.220;9.884;2022-09-30T06:22:25;5.63;;;5.33;;
16689;SDS011;8458;52.220;9.884;2022-09-30T06:24:52;6.07;;;5.77;;
16689;SDS011;8458;52.220;9.884;2022-09-30T06:27:19;5.90;;;5.60;;
16689;SDS011;8458;52.220;9.884;2022-09-30T06:29:46;6.17;;;5.77;;
16689;SDS011;8458;52.220;9.884;2022-09-30T06:32:12;5.60;;;5.30;;
16689;SDS011;8458;52.220;9.884;2022-09-30T06:34:39;6.20;;;5.90;;
16689;SDS011;8458;52.220;9.884;2022-09-30T06:37:05;6.17;;;5.87;;
16689;SDS011;8458;52.220;9.884;2022-09-30T06:39:31;6.60;;;6.30;;
16689;SDS011;8458;52.220;9.884;2022-09-30T06:41:59;6.90;;;6.40;;
16689;SDS011;8458;52.220;9.884;2022-09-30T06:44:26;6.17;;;5.80;;
16689;SDS011;8458;52.220;9.884;2022-09-30T06:46:52;6.73;;;6.23;;
16689;SDS011;8458;52.220;9.884;2022-09-30T06:49:19;6.57;;;6.27;;
16689;SDS011;8458;52.220;9.884;2022-09-30T06:51:45;6.50;;;6.20;;
16689;SDS011;8458;52.220;9.884;2022-09-30T06:54:12;6.97;;;6.50;;
16689;SDS011;8458;52.220;9.884;2022-09-30T06:56:38;6.20;;;5.90;;
16689;SDS011;8458;52.220;9.884;2022-09-30T06:59:07;6.10;;;5.80;;
16689;SDS011;8458;52.220;9.884;2022-09-30T07:01:33;6.13;;;5.83;;
16689;SDS011;8458;52.220;9.884;2022-09-30T07:04:00;6.00;;;5.70;;
16689;SDS011;8458;52.220;9.884;2022-09-30T07:06:32;5.97;;;5.67;;
16689;SDS011;8458;52.220;9.884;2022-09-30T07:08:58;7.37;;;6.97;;
16689;SDS011;8458;52.220;9.884;2022-09-30T07:11:25;6.43;;;6.13;;
16689;SDS011;8458;52.220;9.884;2022-09-30T07:13:51;6.70;;;6.30;;
16689;SDS011;8458;52.220;9.884;2022-09-30T07:16:19;8.00;;;7.40;;
16689;SDS011;8458;52.220;9.884;2022-09-30T07:18:46;7.57;;;7.07;;
16689;SDS011;8458;52.220;9.884;2022-09-30T07:21:12;6.93;;;6.53;;
16689;SDS011;8458;52.220;9.884;2022-09-30T07:23:41;8.00;;;7.60;;
16689;SDS011;8458;52.220;9.884;2022-09-30T07:26:11;7.60;;;7.20;;
16689;SDS011;8458;52.220;9.884;2022-09-30T07:28:39;7.77;;;7.37;;
16689;SDS011;8458;52.220;9.884;2022-09-30T07:31:06;7.43;;;7.03;;
16689;SDS011;8458;52.220;9.884;2022-09-30T07:33:37;7.87;;;7.30;;
16689;SDS011;8458;52.220;9.884;2022-09-30T07:36:05;7.50;;;7.00;;
16689;SDS011;8458;52.220;9.884;2022-09-30T07:38:32;8.10;;;7.60;;
16689;SDS011;8458;52.220;9.884;2022-09-30T07:41:02;8.30;;;7.70;;
16689;SDS011;8458;52.220;9.884;2022-09-30T07:43:31;8.10;;;7.60;;
16689;SDS011;8458;52.220;9.884;2022-09-30T07:46:03;7.90;;;7.50;;
16689;SDS011;8458;52.220;9.884;2022-09-30T07:48:31;7.80;;;7.40;;
16689;SDS011;8458;52.220;9.884;2022-09-30T07:51:10;7.30;;;6.90;;
16689;SDS011;8458;52.220;9.884;2022-09-30T07:53:38;7.03;;;6.63;;
16689;SDS011;8458;52.220;9.884;2022-09-30T07:56:05;7.43;;;7.03;;
16689;SDS011;8458;52.220;9.884;2022-09-30T07:58:32;7.47;;;7.07;;
16689;SDS011;8458;52.220;9.884;2022-09-30T08:00:59;7.80;;;7.33;;
16689;SDS011;8458;52.220;9.884;2022-09-30T08:03:25;7.53;;;7.07;;
16689;SDS011;8458;52.220;9.884;2022-09-30T08:05:52;7.97;;;7.47;;
16689;SDS011;8458;52.220;9.884;2022-09-30T08:08:20;7.80;;;7.40;;
16689;SDS011;8458;52.220;9.884;2022-09-30T08:10:46;7.47;;;6.93;;
16689;SDS011;8458;52.220;9.884;2022-09-30T08:13:13;7.00;;;6.60;;
16689;SDS011;8458;52.220;9.884;2022-09-30T08:15:40;7.00;;;6.70;;
16689;SDS011;8458;52.220;9.884;2022-09-30T08:18:07;7.90;;;7.40;;
16689;SDS011;8458;52.220;9.884;2022-09-30T08:20:33;6.87;;;6.50;;
16689;SDS011;8458;52.220;9.884;2022-09-30T08:23:00;7.07;;;6.67;;
16689;SDS011;8458;52.220;9.884;2022-09-30T08:25:28;7.50;;;6.93;;
16689;SDS011;8458;52.220;9.884;2022-09-30T08:27:54;6.97;;;6.57;;
16689;SDS011;8458;52.220;9.884;2022-09-30T08:30:20;7.13;;;6.73;;
16689;SDS011;8458;52.220;9.884;2022-09-30T08:32:47;6.43;;;6.07;;
16689;SDS011;8458;52.220;9.884;2022-09-30T08:35:14;5.93;;;5.63;;
16689;SDS011;8458;52.220;9.884;2022-09-30T08:37:40;6.63;;;6.23;;
16689;SDS011;8458;52.220;9.884;2022-09-30T08:40:08;6.70;;;6.30;;
16689;SDS011;8458;52.220;9.884;2022-09-30T08:42:47;6.00;;;5.60;;
16689;SDS011;8458;52.220;9.884;2022-09-30T08:45:28;5.57;;;5.27;;
16689;SDS011;8458;52.220;9.884;2022-09-30T08:48:02;6.03;;;5.67;;
16689;SDS011;8458;52.220;9.884;2022-09-30T08:50:41;6.90;;;6.40;;
16689;SDS011;8458;52.220;9.884;2022-09-30T08:53:20;6.07;;;5.67;;
16689;SDS011;8458;52.220;9.884;2022-09-30T08:55:50;6.30;;;5.90;;
16689;SDS011;8458;52.220;9.884;2022-09-30T08:58:23;5.77;;;5.40;;
16689;SDS011;8458;52.220;9.884;2022-09-30T09:00:53;5.93;;;5.63;;
16689;SDS011;8458;52.220;9.884;2022-09-30T09:03:25;6.60;;;6.30;;
16689;SDS011;8458;52.220;9.884;2022-09-30T09:05:53;6.20;;;5.90;;
16689;SDS011;8458;52.220;9.884;2022-09-30T09:08:31;6.87;;;6.47;;
16689;SDS011;8458;52.220;9.884;2022-09-30T09:11:13;6.40;;;6.00;;
16689;SDS011;8458;52.220;9.884;2022-09-30T09:13:49;7.13;;;6.63;;
16689;SDS011;8458;52.220;9.884;2022-09-30T09:16:20;6.33;;;6.00;;
16689;SDS011;8458;52.220;9.884;2022-09-30T09:18:57;6.03;;;5.70;;
16689;SDS011;8458;52.220;9.884;2022-09-30T09:21:28;6.00;;;5.60;;
16689;SDS011;8458;52.220;9.884;2022-09-30T09:24:04;5.97;;;5.67;;
16689;SDS011;8458;52.220;9.884;2022-09-30T09:26:37;5.97;;;5.57;;
16689;SDS011;8458;52.220;9.884;2022-09-30T09:29:07;6.20;;;5.70;;
16689;SDS011;8458;52.220;9.884;2022-09-30T09:31:45;5.90;;;5.50;;
16689;SDS011;8458;52.220;9.884;2022-09-30T09:34:13;5.60;;;5.30;;
16689;SDS011;8458;52.220;9.884;2022-09-30T09:36:43;5.70;;;5.40;;
16689;SDS011;8458;52.220;9.884;2022-09-30T09:39:30;5.53;;;5.23;;
16689;SDS011;8458;52.220;9.884;2022-09-30T09:42:20;4.80;;;4.50;;
16689;SDS011;8458;52.220;9.884;2022-09-30T09:44:58;5.67;;;5.37;;
16689;SDS011;8458;52.220;9.884;2022-09-30T09:47:28;5.50;;;5.10;;
16689;SDS011;8458;52.220;9.884;2022-09-30T09:49:55;5.00;;;4.67;;
16689;SDS011;8458;52.220;9.884;2022-09-30T09:52:35;5.67;;;5.27;;
16689;SDS011;8458;52.220;9.884;2022-09-30T09:55:12;5.37;;;5.07;;
16689;SDS011;8458;52.220;9.884;2022-09-30T09:57:42;5.50;;;5.10;;
16689;SDS011;8458;52.220;9.884;2022-09-30T10:00:10;5.37;;;5.07;;
16689;SDS011;8458;52.220;9.884;2022-09-30T10:03:04;5.37;;;5.07;;
16689;SDS011;8458;52.220;9.884;2022-09-30T10:05:37;5.57;;;5.27;;
16689;SDS011;8458;52.220;9.884;2022-09-30T10:08:09;5.53;;;5.23;;
16689;SDS011;8458;52.220;9.884;2022-09-30T10:10:48;5.40;;;5.07;;
16689;SDS011;8458;52.220;9.884;2022-09-30T10:13:16;5.40;;;5.03;;
16689;SDS011;8458;52.220;9.884;2022-09-30T10:15:46;5.37;;;5.07;;
16689;SDS011;8458;52.220;9.884;2022-09-30T10:18:18;4.33;;;4.07;;
16689;SDS011;8458;52.220;9.884;2022-09-30T10:20:49;5.30;;;4.90;;
16689;SDS011;8458;52.220;9.884;2022-09-30T10:23:19;5.47;;;4.97;;
16689;SDS011;8458;52.220;9.884;2022-09-30T10:25:53;4.70;;;4.40;;
16689;SDS011;8458;52.220;9.884;2022-09-30T10:28:22;4.60;;;4.30;;
16689;SDS011;8458;52.220;9.884;2022-09-30T10:30:52;4.53;;;4.23;;
16689;SDS011;8458;52.220;9.884;2022-09-30T10:33:23;4.53;;;4.23;;
16689;SDS011;8458;52.220;9.884;2022-09-30T10:35:55;4.07;;;3.87;;
16689;SDS011;8458;52.220;9.884;2022-09-30T10:38:26;4.33;;;3.97;;
16689;SDS011;8458;52.220;9.884;2022-09-30T10:40:55;4.20;;;3.90;;
16689;SDS011;8458;52.220;9.884;2022-09-30T10:43:24;4.17;;;3.87;;
16689;SDS011;8458;52.220;9.884;2022-09-30T10:45:56;3.53;;;3.33;;
16689;SDS011;8458;52.220;9.884;2022-09-30T10:48:27;4.73;;;4.43;;
16689;SDS011;8458;52.220;9.884;2022-09-30T10:50:58;4.63;;;4.33;;
16689;SDS011;8458;52.220;9.884;2022-09-30T10:53:25;4.20;;;4.00;;
16689;SDS011;8458;52.220;9.884;2022-09-30T10:55:53;4.37;;;4.07;;
16689;SDS011;8458;52.220;9.884;2022-09-30T10:58:23;5.20;;;4.90;;
16689;SDS011;8458;52.220;9.884;2022-09-30T11:00:58;4.27;;;3.97;;
16689;SDS011;8458;52.220;9.884;2022-09-30T11:03:27;5.20;;;4.90;;
16689;SDS011;8458;52.220;9.884;2022-09-30T11:06:00;4.50;;;4.30;;
16689;SDS011;8458;52.220;9.884;2022-09-30T11:08:28;6.43;;;5.93;;
16689;SDS011;8458;52.220;9.884;2022-09-30T11:10:59;6.13;;;5.63;;
16689;SDS011;8458;52.220;9.884;2022-09-30T11:13:35;6.97;;;6.57;;
16689;SDS011;8458;52.220;9.884;2022-09-30T11:16:08;6.10;;;5.70;;
16689;SDS011;8458;52.220;9.884;2022-09-30T11:18:42;6.00;;;5.70;;
16689;SDS011;8458;52.220;9.884;2022-09-30T11:21:14;6.93;;;6.43;;
16689;SDS011;8458;52.220;9.884;2022-09-30T11:23:47;7.07;;;6.60;;
16689;SDS011;8458;52.220;9.884;2022-09-30T11:26:20;7.20;;;6.80;;
16689;SDS011;8458;52.220;9.884;2022-09-30T11:29:04;6.83;;;6.47;;
16689;SDS011;8458;52.220;9.884;2022-09-30T11:31:55;6.67;;;6.27;;
16689;SDS011;8458;52.220;9.884;2022-09-30T11:34:29;7.20;;;6.80;;
16689;SDS011;8458;52.220;9.884;2022-09-30T11:37:07;7.53;;;7.13;;
16689;SDS011;8458;52.220;9.884;2022-09-30T11:42:46;8.93;;;8.33;;
16689;SDS011;8458;52.220;9.884;2022-09-30T11:45:22;8.93;;;8.43;;
16689;SDS011;8458;52.220;9.884;2022-09-30T11:48:03;9.90;;;8.90;;
16689;SDS011;8458;52.220;9.884;2022-09-30T11:50:45;9.77;;;9.27;;
16689;SDS011;8458;52.220;9.884;2022-09-30T11:53:25;9.50;;;8.90;;
16689;SDS011;8458;52.220;9.884;2022-09-30T11:56:05;9.17;;;8.63;;
16689;SDS011;8458;52.220;9.884;2022-09-30T11:58:42;9.20;;;8.60;;
16689;SDS011;8458;52.220;9.884;2022-09-30T12:01:15;8.57;;;8.00;;
16689;SDS011;8458;52.220;9.884;2022-09-30T12:03:50;8.07;;;7.57;;
16689;SDS011;8458;52.220;9.884;2022-09-30T12:06:25;6.33;;;5.93;;
16689;SDS011;8458;52.220;9.884;2022-09-30T12:08:57;5.67;;;5.37;;
16689;SDS011;8458;52.220;9.884;2022-09-30T12:11:32;6.33;;;6.03;;
16689;SDS011;8458;52.220;9.884;2022-09-30T12:14:06;5.60;;;5.30;;
16689;SDS011;8458;52.220;9.884;2022-09-30T12:16:39;5.00;;;4.70;;
16689;SDS011;8458;52.220;9.884;2022-09-30T12:19:12;3.40;;;3.20;;
16689;SDS011;8458;52.220;9.884;2022-09-30T12:21:44;4.23;;;3.97;;
16689;SDS011;8458;52.220;9.884;2022-09-30T12:24:19;3.87;;;3.67;;
16689;SDS011;8458;52.220;9.884;2022-09-30T12:26:50;3.43;;;3.23;;
16689;SDS011;8458;52.220;9.884;2022-09-30T12:29:19;2.13;;;2.03;;
16689;SDS011;8458;52.220;9.884;2022-09-30T12:32:16;2.83;;;2.63;;
16689;SDS011;8458;52.220;9.884;2022-09-30T12:34:57;3.00;;;2.80;;
16689;SDS011;8458;52.220;9.884;2022-09-30T12:37:40;2.60;;;2.40;;
16689;SDS011;8458;52.220;9.884;2022-09-30T12:43:16;1.93;;;1.83;;
16689;SDS011;8458;52.220;9.884;2022-09-30T12:46:12;1.90;;;1.80;;
16689;SDS011;8458;52.220;9.884;2022-09-30T12:48:42;2.03;;;1.90;;
16689;SDS011;8458;52.220;9.884;2022-09-30T12:51:20;1.90;;;1.80;;
16689;SDS011;8458;52.220;9.884;2022-09-30T12:53:51;1.70;;;1.60;;
16689;SDS011;8458;52.220;9.884;2022-09-30T12:56:27;1.60;;;1.40;;
16689;SDS011;8458;52.220;9.884;2022-09-30T12:58:55;1.53;;;1.40;;
16689;SDS011;8458;52.220;9.884;2022-09-30T13:01:24;1.40;;;1.30;;
16689;SDS011;8458;52.220;9.884;2022-09-30T13:04:08;1.60;;;1.50;;
16689;SDS011;8458;52.220;9.884;2022-09-30T13:09:54;1.50;;;1.40;;
16689;SDS011;8458;52.220;9.884;2022-09-30T13:12:24;1.50;;;1.40;;
16689;SDS011;8458;52.220;9.884;2022-09-30T13:23:59;2.00;;;1.10;;
16689;SDS011;8458;52.220;9.884;2022-09-30T13:26:31;1.57;;;1.10;;
16689;SDS011;8458;52.220;9.884;2022-09-30T13:32:28;1.27;;;1.17;;
16689;SDS011;8458;52.220;9.884;2022-09-30T13:34:56;1.20;;;1.10;;
16689;SDS011;8458;52.220;9.884;2022-09-30T13:37:31;0.90;;;0.87;;
16689;SDS011;8458;52.220;9.884;2022-09-30T13:40:01;1.13;;;1.03;;
16689;SDS011;8458;52.220;9.884;2022-09-30T13:42:30;1.60;;;1.40;;
16689;SDS011;8458;52.220;9.884;2022-09-30T13:45:05;1.50;;;1.20;;
16689;SDS011;8458;52.220;9.884;2022-09-30T13:47:38;1.50;;;1.30;;
16689;SDS011;8458;52.220;9.884;2022-09-30T13:50:11;2.20;;;2.00;;
16689;SDS011;8458;52.220;9.884;2022-09-30T13:52:40;1.47;;;1.37;;
16689;SDS011;8458;52.220;9.884;2022-09-30T13:55:11;1.30;;;1.20;;
16689;SDS011;8458;52.220;9.884;2022-09-30T13:57:44;1.60;;;1.43;;
16689;SDS011;8458;52.220;9.884;2022-09-30T14:00:19;1.17;;;1.07;;
16689;SDS011;8458;52.220;9.884;2022-09-30T14:02:57;1.37;;;1.17;;
16689;SDS011;8458;52.220;9.884;2022-09-30T14:11:29;1.53;;;1.30;;
16689;SDS011;8458;52.220;9.884;2022-09-30T14:14:21;1.40;;;1.30;;
16689;SDS011;8458;52.220;9.884;2022-09-30T14:17:02;1.10;;;1.00;;
16689;SDS011;8458;52.220;9.884;2022-09-30T14:20:00;1.20;;;1.03;;
16689;SDS011;8458;52.220;9.884;2022-09-30T14:22:39;1.47;;;1.20;;
16689;SDS011;8458;52.220;9.884;2022-09-30T14:25:08;1.40;;;1.30;;
16689;SDS011;8458;52.220;9.884;2022-09-30T14:27:43;1.40;;;1.30;;
16689;SDS011;8458;52.220;9.884;2022-09-30T14:30:17;1.30;;;1.20;;
16689;SDS011;8458;52.220;9.884;2022-09-30T14:32:47;1.47;;;1.10;;
16689;SDS011;8458;52.220;9.884;2022-09-30T14:35:16;1.30;;;1.20;;
16689;SDS011;8458;52.220;9.884;2022-09-30T14:37:46;1.40;;;1.27;;
16689;SDS011;8458;52.220;9.884;2022-09-30T14:40:16;1.47;;;1.30;;
16689;SDS011;8458;52.220;9.884;2022-09-30T14:42:47;1.47;;;1.30;;
16689;SDS011;8458;52.220;9.884;2022-09-30T14:45:17;1.37;;;1.20;;
16689;SDS011;8458;52.220;9.884;2022-09-30T14:47:47;1.43;;;1.33;;
16689;SDS011;8458;52.220;9.884;2022-09-30T14:50:16;1.17;;;1.07;;
16689;SDS011;8458;52.220;9.884;2022-09-30T14:52:45;1.90;;;1.30;;
16689;SDS011;8458;52.220;9.884;2022-09-30T14:55:21;1.70;;;1.40;;
16689;SDS011;8458;52.220;9.884;2022-09-30T14:57:53;1.83;;;1.47;;
16689;SDS011;8458;52.220;9.884;2022-09-30T15:00:26;1.67;;;1.20;;
16689;SDS011;8458;52.220;9.884;2022-09-30T15:02:55;1.20;;;1.20;;
16689;SDS011;8458;52.220;9.884;2022-09-30T15:05:22;1.40;;;1.27;;
16689;SDS011;8458;52.220;9.884;2022-09-30T15:07:48;1.90;;;1.30;;
16689;SDS011;8458;52.220;9.884;2022-09-30T15:10:16;1.80;;;1.30;;
16689;SDS011;8458;52.220;9.884;2022-09-30T15:12:46;1.77;;;1.20;;
16689;SDS011;8458;52.220;9.884;2022-09-30T15:15:23;2.27;;;1.30;;
16689;SDS011;8458;52.220;9.884;2022-09-30T15:18:27;1.40;;;1.30;;
16689;SDS011;8458;52.220;9.884;2022-09-30T15:20:56;1.50;;;1.40;;
16689;SDS011;8458;52.220;9.884;2022-09-30T15:23:25;1.87;;;1.47;;
16689;SDS011;8458;52.220;9.884;2022-09-30T15:25:55;1.27;;;1.17;;
16689;SDS011;8458;52.220;9.884;2022-09-30T15:28:22;1.40;;;1.30;;
16689;SDS011;8458;52.220;9.884;2022-09-30T15:30:50;1.37;;;1.20;;
16689;SDS011;8458;52.220;9.884;2022-09-30T15:33:19;1.30;;;1.20;;
16689;SDS011;8458;52.220;9.884;2022-09-30T15:35:48;1.20;;;1.10;;
16689;SDS011;8458;52.220;9.884;2022-09-30T15:38:16;1.67;;;1.20;;
16689;SDS011;8458;52.220;9.884;2022-09-30T15:40:47;1.50;;;1.40;;
16689;SDS011;8458;52.220;9.884;2022-09-30T15:43:28;1.23;;;1.13;;
16689;SDS011;8458;52.220;9.884;2022-09-30T15:46:06;1.57;;;1.40;;
16689;SDS011;8458;52.220;9.884;2022-09-30T15:48:41;1.30;;;1.20;;
16689;SDS011;8458;52.220;9.884;2022-09-30T15:51:22;1.20;;;1.10;;
16689;SDS011;8458;52.220;9.884;2022-09-30T15:53:51;1.50;;;1.20;;
16689;SDS011;8458;52.220;9.884;2022-09-30T15:56:21;2.10;;;1.23;;
16689;SDS011;8458;52.220;9.884;2022-09-30T15:58:53;1.37;;;1.27;;